עמוד ראשי
METAR-TAF:

METAR-TAF

שדות תעופה :

Kish Island, איראן

קו רוחב: 26-31-36N, קו אורך: 053-58-54E, גובה: 30מטר

תצפית מזג אוויר נוכחית

הדו"ח נערך לפני 48דקות, בשעה 20:00 UTC
רוח 14קשר מכיוון מערב/צפון-מערב
טמפרטורת 32 צלסיוס
לחות 63%
לחץ 997 hPa
ראות: 8000מטר

METAR: OIBK 132000Z 30014KT 8000 NSC 32/24 Q0997

זמן: 01:18 (20:48 UTC)

תחזית

הדו"ח נערך לפני 3 שעות ו 18דקות, בשעה 17:30 UTC
תחזית בתוקף מ 13 ב 18 UTC עד 14 ב 24 UTC
רוח 12קשר מכיוון מערב
ראות: 7000מטר
זמנית מ -
14 ב 00 UTC עד 14 ב 05 UTC
ראות: 4000מטר
אובך
יעשה מ
14 ב 02 UTC עד 14 ב 04 UTC
רוח 7קשר מכיוון מזרח/דרום-מזרח
זמנית מ -
14 ב 08 UTC עד 14 ב 16 UTC
רוח 17קשר מכיוון צפון-מערב

TAF: OIBK 131730Z 1318/1424 28012KT 7000 NSC TEMPO 1400/1405 4000 HZ BECMG 1402/1404 12007KT TEMPO 1408/1416 32017KT

תצפיות ותחזיות מזג אוויר לגבי יותר מ- 4,000 שדות תעופה ברחבי העולם. דוחות METAR ו- TAF.

התחנות הזמינות מסומנות בנקודות צהובות ואדומות על גבי המפה.

העבר את העכבר לנקודה הצבעונית על מנת לראות את שם התחנה.

לאחר מכן, לחץ כדי לראות את תוכן ואת תחזיות מזג האוויר.

כדי לשנות את המפה: לחץ על הכפתורים הירוקים עם הפלוס השחור כדי להתקרב; על הכפתור הירוק עם המקף כדי להתרחק; או בחיצים הירוקים למפות סמוכות.


METAR-TAF: